sensor_id;sensor_type;location;lat;lon;timestamp;pressure;altitude;pressure_sealevel;temperature;humidity
72525;BME280;60547;48.502;8.996;2023-02-25T00:00:25;96765.81;;;4.42;90.51
72525;BME280;60547;48.502;8.996;2023-02-25T00:02:50;96775.28;;;4.41;90.98
72525;BME280;60547;48.502;8.996;2023-02-25T00:05:17;96772.31;;;4.51;90.17
72525;BME280;60547;48.502;8.996;2023-02-25T00:07:43;96772.97;;;4.59;90.14
72525;BME280;60547;48.502;8.996;2023-02-25T00:10:10;96775.78;;;4.36;89.92
72525;BME280;60547;48.502;8.996;2023-02-25T00:12:37;96782.84;;;4.37;89.13
72525;BME280;60547;48.502;8.996;2023-02-25T00:15:03;96782.13;;;4.33;90.35
72525;BME280;60547;48.502;8.996;2023-02-25T00:17:31;96783.59;;;4.17;90.50
72525;BME280;60547;48.502;8.996;2023-02-25T00:19:56;96781.91;;;4.24;89.96
72525;BME280;60547;48.502;8.996;2023-02-25T00:22:23;96789.56;;;4.36;89.98
72525;BME280;60547;48.502;8.996;2023-02-25T00:24:52;96786.16;;;4.48;88.82
72525;BME280;60547;48.502;8.996;2023-02-25T00:27:18;96791.88;;;4.57;89.39
72525;BME280;60547;48.502;8.996;2023-02-25T00:29:44;96805.03;;;4.69;89.12
72525;BME280;60547;48.502;8.996;2023-02-25T00:32:09;96813.84;;;4.61;89.94
72525;BME280;60547;48.502;8.996;2023-02-25T00:34:35;96805.88;;;4.66;89.00
72525;BME280;60547;48.502;8.996;2023-02-25T00:37:00;96812.78;;;4.74;88.89
72525;BME280;60547;48.502;8.996;2023-02-25T00:39:26;96806.16;;;4.52;90.36
72525;BME280;60547;48.502;8.996;2023-02-25T00:42:10;96807.00;;;4.69;90.13
72525;BME280;60547;48.502;8.996;2023-02-25T00:44:37;96793.78;;;4.40;89.30
72525;BME280;60547;48.502;8.996;2023-02-25T00:47:03;96798.66;;;4.33;89.73
72525;BME280;60547;48.502;8.996;2023-02-25T00:49:29;96824.34;;;4.26;87.67
72525;BME280;60547;48.502;8.996;2023-02-25T00:51:55;96811.97;;;4.14;87.53
72525;BME280;60547;48.502;8.996;2023-02-25T00:54:21;96825.97;;;4.24;88.85
72525;BME280;60547;48.502;8.996;2023-02-25T00:56:46;96808.44;;;4.14;88.25
72525;BME280;60547;48.502;8.996;2023-02-25T00:59:12;96822.72;;;4.29;89.13
72525;BME280;60547;48.502;8.996;2023-02-25T01:01:38;96815.72;;;4.24;88.17
72525;BME280;60547;48.502;8.996;2023-02-25T01:04:04;96804.44;;;4.18;88.21
72525;BME280;60547;48.502;8.996;2023-02-25T01:06:32;96807.75;;;4.30;87.82
72525;BME280;60547;48.502;8.996;2023-02-25T01:08:58;96810.03;;;4.35;87.69
72525;BME280;60547;48.502;8.996;2023-02-25T01:11:26;96799.56;;;4.26;87.55
72525;BME280;60547;48.502;8.996;2023-02-25T01:13:58;96811.09;;;4.41;87.96
72525;BME280;60547;48.502;8.996;2023-02-25T01:16:27;96809.88;;;4.42;88.31
72525;BME280;60547;48.502;8.996;2023-02-25T01:18:54;96811.66;;;4.52;88.11
72525;BME280;60547;48.502;8.996;2023-02-25T01:21:35;96817.31;;;4.45;88.64
72525;BME280;60547;48.502;8.996;2023-02-25T01:24:05;96832.41;;;4.37;88.17
72525;BME280;60547;48.502;8.996;2023-02-25T01:26:34;96835.38;;;4.46;88.11
72525;BME280;60547;48.502;8.996;2023-02-25T01:29:00;96837.06;;;4.40;88.45
72525;BME280;60547;48.502;8.996;2023-02-25T01:31:25;96822.31;;;4.50;88.44
72525;BME280;60547;48.502;8.996;2023-02-25T01:33:58;96817.94;;;4.52;89.03
72525;BME280;60547;48.502;8.996;2023-02-25T01:36:25;96826.34;;;4.65;89.19
72525;BME280;60547;48.502;8.996;2023-02-25T01:38:51;96817.09;;;4.56;89.32
72525;BME280;60547;48.502;8.996;2023-02-25T01:41:17;96826.19;;;4.33;90.03
72525;BME280;60547;48.502;8.996;2023-02-25T01:43:59;96821.69;;;4.42;90.00
72525;BME280;60547;48.502;8.996;2023-02-25T01:46:26;96821.47;;;4.33;91.07
72525;BME280;60547;48.502;8.996;2023-02-25T01:48:51;96824.88;;;4.41;91.47
72525;BME280;60547;48.502;8.996;2023-02-25T01:51:17;96836.72;;;4.38;91.91
72525;BME280;60547;48.502;8.996;2023-02-25T01:53:44;96845.28;;;4.43;91.84
72525;BME280;60547;48.502;8.996;2023-02-25T01:56:13;96834.31;;;4.40;91.13
72525;BME280;60547;48.502;8.996;2023-02-25T01:58:41;96838.75;;;4.34;91.43
72525;BME280;60547;48.502;8.996;2023-02-25T02:01:10;96842.22;;;4.38;91.87
72525;BME280;60547;48.502;8.996;2023-02-25T02:03:37;96835.53;;;4.39;91.89
72525;BME280;60547;48.502;8.996;2023-02-25T02:06:22;96841.81;;;4.39;92.13
72525;BME280;60547;48.502;8.996;2023-02-25T02:08:50;96846.88;;;4.41;92.38
72525;BME280;60547;48.502;8.996;2023-02-25T02:11:16;96841.75;;;4.43;92.04
72525;BME280;60547;48.502;8.996;2023-02-25T02:13:44;96856.66;;;4.45;92.00
72525;BME280;60547;48.502;8.996;2023-02-25T02:18:57;96862.94;;;4.46;92.29
72525;BME280;60547;48.502;8.996;2023-02-25T02:29:45;96829.31;;;4.54;92.19
72525;BME280;60547;48.502;8.996;2023-02-25T02:35:02;96826.34;;;4.45;91.97
72525;BME280;60547;48.502;8.996;2023-02-25T02:40:27;96838.63;;;4.41;92.38
72525;BME280;60547;48.502;8.996;2023-02-25T02:43:05;96842.94;;;4.42;92.67
72525;BME280;60547;48.502;8.996;2023-02-25T02:45:58;96838.63;;;4.41;93.03
72525;BME280;60547;48.502;8.996;2023-02-25T02:48:33;96851.91;;;4.46;92.79
72525;BME280;60547;48.502;8.996;2023-02-25T02:51:07;96847.25;;;4.43;93.54
72525;BME280;60547;48.502;8.996;2023-02-25T02:53:38;96854.25;;;4.47;92.87
72525;BME280;60547;48.502;8.996;2023-02-25T02:56:06;96852.03;;;4.39;92.49
72525;BME280;60547;48.502;8.996;2023-02-25T02:58:43;96856.22;;;4.47;92.32
72525;BME280;60547;48.502;8.996;2023-02-25T03:01:14;96854.31;;;4.44;92.99
72525;BME280;60547;48.502;8.996;2023-02-25T03:03:46;96854.31;;;4.44;93.08
72525;BME280;60547;48.502;8.996;2023-02-25T03:06:17;96848.94;;;4.37;93.03
72525;BME280;60547;48.502;8.996;2023-02-25T03:08:52;96856.06;;;4.34;92.98
72525;BME280;60547;48.502;8.996;2023-02-25T03:11:20;96861.63;;;4.31;93.37
72525;BME280;60547;48.502;8.996;2023-02-25T03:13:45;96854.50;;;4.33;90.00
72525;BME280;60547;48.502;8.996;2023-02-25T03:16:18;96865.09;;;4.35;89.75
72525;BME280;60547;48.502;8.996;2023-02-25T03:19:01;96859.09;;;4.40;90.24
72525;BME280;60547;48.502;8.996;2023-02-25T03:21:37;96854.09;;;4.35;90.16
72525;BME280;60547;48.502;8.996;2023-02-25T03:24:04;96855.28;;;4.34;90.71
72525;BME280;60547;48.502;8.996;2023-02-25T03:26:32;96856.91;;;4.31;88.61
72525;BME280;60547;48.502;8.996;2023-02-25T03:28:59;96857.31;;;4.30;89.28
72525;BME280;60547;48.502;8.996;2023-02-25T03:31:29;96850.81;;;4.20;88.56
72525;BME280;60547;48.502;8.996;2023-02-25T03:34:02;96855.13;;;4.21;88.28
72525;BME280;60547;48.502;8.996;2023-02-25T03:36:48;96867.69;;;4.22;87.77
72525;BME280;60547;48.502;8.996;2023-02-25T03:39:18;96859.59;;;4.11;88.25
72525;BME280;60547;48.502;8.996;2023-02-25T03:41:49;96854.81;;;4.15;87.84
72525;BME280;60547;48.502;8.996;2023-02-25T03:44:19;96869.38;;;4.16;87.78
72525;BME280;60547;48.502;8.996;2023-02-25T03:46:46;96869.06;;;4.10;87.75
72525;BME280;60547;48.502;8.996;2023-02-25T03:49:19;96876.84;;;4.15;88.25
72525;BME280;60547;48.502;8.996;2023-02-25T03:51:47;96864.47;;;4.04;87.94
72525;BME280;60547;48.502;8.996;2023-02-25T03:54:14;96869.91;;;4.07;88.34
72525;BME280;60547;48.502;8.996;2023-02-25T03:56:45;96869.41;;;4.12;88.85
72525;BME280;60547;48.502;8.996;2023-02-25T03:59:11;96869.06;;;4.10;88.89
72525;BME280;60547;48.502;8.996;2023-02-25T04:01:37;96880.78;;;4.14;87.08
72525;BME280;60547;48.502;8.996;2023-02-25T04:04:04;96882.06;;;4.10;88.05
72525;BME280;60547;48.502;8.996;2023-02-25T04:06:29;96877.03;;;4.05;88.61
72525;BME280;60547;48.502;8.996;2023-02-25T04:08:56;96885.88;;;3.93;87.38
72525;BME280;60547;48.502;8.996;2023-02-25T04:11:22;96884.25;;;3.95;88.60
72525;BME280;60547;48.502;8.996;2023-02-25T04:13:48;96896.00;;;3.99;88.24
72525;BME280;60547;48.502;8.996;2023-02-25T04:16:14;96885.81;;;3.96;88.21
72525;BME280;60547;48.502;8.996;2023-02-25T04:18:40;96888.38;;;4.07;88.33
72525;BME280;60547;48.502;8.996;2023-02-25T04:21:06;96886.47;;;4.04;89.03
72525;BME280;60547;48.502;8.996;2023-02-25T04:23:33;96901.78;;;4.05;89.62
72525;BME280;60547;48.502;8.996;2023-02-25T04:25:59;96891.31;;;3.96;90.63
72525;BME280;60547;48.502;8.996;2023-02-25T04:28:25;96890.53;;;3.96;90.53
72525;BME280;60547;48.502;8.996;2023-02-25T04:30:50;96900.28;;;4.00;91.17
72525;BME280;60547;48.502;8.996;2023-02-25T04:33:16;96905.06;;;3.96;90.74
72525;BME280;60547;48.502;8.996;2023-02-25T04:35:41;96907.22;;;3.85;89.63
72525;BME280;60547;48.502;8.996;2023-02-25T04:38:08;96900.09;;;3.87;89.18
72525;BME280;60547;48.502;8.996;2023-02-25T04:40:34;96906.75;;;3.90;88.83
72525;BME280;60547;48.502;8.996;2023-02-25T04:42:59;96892.06;;;3.73;88.75
72525;BME280;60547;48.502;8.996;2023-02-25T04:45:25;96897.88;;;3.79;88.72
72525;BME280;60547;48.502;8.996;2023-02-25T04:47:51;96900.94;;;3.84;87.87
72525;BME280;60547;48.502;8.996;2023-02-25T04:50:18;96891.66;;;3.75;88.29
72525;BME280;60547;48.502;8.996;2023-02-25T04:52:43;96902.84;;;3.87;88.89
72525;BME280;60547;48.502;8.996;2023-02-25T04:55:09;96902.50;;;3.85;89.93
72525;BME280;60547;48.502;8.996;2023-02-25T04:57:36;96906.13;;;3.79;89.50
72525;BME280;60547;48.502;8.996;2023-02-25T05:00:26;96892.25;;;3.86;90.10
72525;BME280;60547;48.502;8.996;2023-02-25T05:02:52;96897.03;;;3.82;89.39
72525;BME280;60547;48.502;8.996;2023-02-25T05:05:18;96903.63;;;3.88;89.05
72525;BME280;60547;48.502;8.996;2023-02-25T05:07:44;96905.91;;;3.93;88.90
72525;BME280;60547;48.502;8.996;2023-02-25T05:10:10;96909.75;;;3.99;89.08
72525;BME280;60547;48.502;8.996;2023-02-25T05:12:36;96910.69;;;3.89;88.41
72525;BME280;60547;48.502;8.996;2023-02-25T05:15:03;96928.50;;;3.81;86.87
72525;BME280;60547;48.502;8.996;2023-02-25T05:17:36;96929.66;;;3.56;87.02
72525;BME280;60547;48.502;8.996;2023-02-25T05:20:08;96905.41;;;3.48;86.38
72525;BME280;60547;48.502;8.996;2023-02-25T05:22:58;96922.38;;;3.70;86.86
72525;BME280;60547;48.502;8.996;2023-02-25T05:25:27;96911.28;;;3.77;86.56
72525;BME280;60547;48.502;8.996;2023-02-25T05:27:56;96902.75;;;3.68;85.82
72525;BME280;60547;48.502;8.996;2023-02-25T05:30:33;96923.22;;;3.67;85.41
72525;BME280;60547;48.502;8.996;2023-02-25T05:32:59;96918.09;;;3.38;85.62
72525;BME280;60547;48.502;8.996;2023-02-25T05:35:25;96930.47;;;3.53;84.87
72525;BME280;60547;48.502;8.996;2023-02-25T05:37:50;96924.09;;;3.60;84.33
72525;BME280;60547;48.502;8.996;2023-02-25T05:40:16;96939.31;;;3.68;83.72
72525;BME280;60547;48.502;8.996;2023-02-25T05:42:41;96932.75;;;3.59;83.06
72525;BME280;60547;48.502;8.996;2023-02-25T05:45:08;96936.13;;;3.70;83.10
72525;BME280;60547;48.502;8.996;2023-02-25T05:47:34;96945.22;;;3.67;82.12
72525;BME280;60547;48.502;8.996;2023-02-25T05:50:00;96951.91;;;3.66;81.16
72525;BME280;60547;48.502;8.996;2023-02-25T05:52:25;96933.63;;;3.52;81.24
72525;BME280;60547;48.502;8.996;2023-02-25T05:54:51;96950.00;;;3.63;81.68
72525;BME280;60547;48.502;8.996;2023-02-25T05:57:16;96948.16;;;3.52;80.28
72525;BME280;60547;48.502;8.996;2023-02-25T05:59:42;96943.84;;;3.51;81.41
72525;BME280;60547;48.502;8.996;2023-02-25T06:02:08;96941.94;;;3.48;82.20
72525;BME280;60547;48.502;8.996;2023-02-25T06:04:33;96943.50;;;3.49;81.85
72525;BME280;60547;48.502;8.996;2023-02-25T06:06:59;96940.78;;;3.46;81.40
72525;BME280;60547;48.502;8.996;2023-02-25T06:09:24;96946.28;;;3.46;81.32
72525;BME280;60547;48.502;8.996;2023-02-25T06:11:51;96934.66;;;3.35;81.81
72525;BME280;60547;48.502;8.996;2023-02-25T06:14:16;96939.47;;;3.27;81.94
72525;BME280;60547;48.502;8.996;2023-02-25T06:16:42;96938.69;;;3.27;82.18
72525;BME280;60547;48.502;8.996;2023-02-25T06:19:09;96941.09;;;3.21;81.88
72525;BME280;60547;48.502;8.996;2023-02-25T06:21:35;96946.38;;;3.08;81.54
72525;BME280;60547;48.502;8.996;2023-02-25T06:24:02;96953.84;;;3.08;82.43
72525;BME280;60547;48.502;8.996;2023-02-25T06:26:28;96953.16;;;2.97;82.34
72525;BME280;60547;48.502;8.996;2023-02-25T06:28:54;96965.34;;;2.96;83.11
72525;BME280;60547;48.502;8.996;2023-02-25T06:31:22;96979.19;;;2.85;82.80
72525;BME280;60547;48.502;8.996;2023-02-25T06:33:48;96987.97;;;2.73;83.85
72525;BME280;60547;48.502;8.996;2023-02-25T06:36:18;96987.19;;;2.72;83.43
72525;BME280;60547;48.502;8.996;2023-02-25T06:38:45;96995.13;;;2.59;84.39
72525;BME280;60547;48.502;8.996;2023-02-25T06:41:14;97008.94;;;2.52;84.00
72525;BME280;60547;48.502;8.996;2023-02-25T06:43:41;97013.31;;;2.46;84.29
72525;BME280;60547;48.502;8.996;2023-02-25T06:46:08;97030.19;;;2.45;84.65
72525;BME280;60547;48.502;8.996;2023-02-25T06:48:34;97004.75;;;2.37;85.17
72525;BME280;60547;48.502;8.996;2023-02-25T06:51:00;97008.66;;;2.40;85.26
72525;BME280;60547;48.502;8.996;2023-02-25T06:53:27;96998.00;;;2.45;85.76
72525;BME280;60547;48.502;8.996;2023-02-25T06:55:53;97002.66;;;2.52;85.60
72525;BME280;60547;48.502;8.996;2023-02-25T06:58:18;97002.34;;;2.43;86.00
72525;BME280;60547;48.502;8.996;2023-02-25T07:00:44;97007.06;;;2.42;85.96
72525;BME280;60547;48.502;8.996;2023-02-25T07:03:11;97014.09;;;2.43;86.05
72525;BME280;60547;48.502;8.996;2023-02-25T07:05:36;97023.06;;;2.51;86.26
72525;BME280;60547;48.502;8.996;2023-02-25T07:08:02;97002.22;;;2.57;85.32
72525;BME280;60547;48.502;8.996;2023-02-25T07:10:28;97003.34;;;2.63;85.67
72525;BME280;60547;48.502;8.996;2023-02-25T07:12:54;97006.81;;;2.71;85.46
72525;BME280;60547;48.502;8.996;2023-02-25T07:15:20;97005.16;;;2.80;84.68
72525;BME280;60547;48.502;8.996;2023-02-25T07:17:45;96983.88;;;2.88;84.76
72525;BME280;60547;48.502;8.996;2023-02-25T07:20:11;96996.69;;;3.02;82.39
72525;BME280;60547;48.502;8.996;2023-02-25T07:22:37;97001.72;;;3.07;82.99
72525;BME280;60547;48.502;8.996;2023-02-25T07:25:03;97020.44;;;3.19;81.60
72525;BME280;60547;48.502;8.996;2023-02-25T07:27:29;96998.69;;;2.98;81.02
72525;BME280;60547;48.502;8.996;2023-02-25T07:29:54;97018.63;;;3.05;79.96
72525;BME280;60547;48.502;8.996;2023-02-25T07:32:23;97021.34;;;3.09;79.86
72525;BME280;60547;48.502;8.996;2023-02-25T07:34:48;97028.41;;;3.10;80.42
72525;BME280;60547;48.502;8.996;2023-02-25T07:37:14;97033.81;;;3.17;79.69
72525;BME280;60547;48.502;8.996;2023-02-25T07:39:39;97016.25;;;3.07;78.71
72525;BME280;60547;48.502;8.996;2023-02-25T07:42:05;97034.56;;;3.21;77.82
72525;BME280;60547;48.502;8.996;2023-02-25T07:44:30;97016.13;;;3.18;77.89
72525;BME280;60547;48.502;8.996;2023-02-25T07:46:56;97026.75;;;3.16;77.94
72525;BME280;60547;48.502;8.996;2023-02-25T07:49:21;97013.31;;;3.25;77.89
72525;BME280;60547;48.502;8.996;2023-02-25T07:51:46;97030.16;;;3.27;77.60
72525;BME280;60547;48.502;8.996;2023-02-25T07:54:12;97025.81;;;3.30;78.06
72525;BME280;60547;48.502;8.996;2023-02-25T07:56:39;97019.06;;;3.38;78.71
72525;BME280;60547;48.502;8.996;2023-02-25T07:59:05;97009.75;;;3.28;78.29
72525;BME280;60547;48.502;8.996;2023-02-25T08:01:32;97010.19;;;3.23;77.81
72525;BME280;60547;48.502;8.996;2023-02-25T08:04:04;97008.91;;;3.31;77.56
72525;BME280;60547;48.502;8.996;2023-02-25T08:06:31;97002.94;;;3.40;77.70
72525;BME280;60547;48.502;8.996;2023-02-25T08:08:58;97004.44;;;3.44;78.26
72525;BME280;60547;48.502;8.996;2023-02-25T08:11:25;97006.75;;;3.49;78.41
72525;BME280;60547;48.502;8.996;2023-02-25T08:13:52;97005.09;;;3.55;78.38
72525;BME280;60547;48.502;8.996;2023-02-25T08:16:18;96983.19;;;3.48;77.86
72525;BME280;60547;48.502;8.996;2023-02-25T08:18:44;97003.25;;;3.76;77.01
72525;BME280;60547;48.502;8.996;2023-02-25T08:21:14;97003.72;;;3.71;74.15
72525;BME280;60547;48.502;8.996;2023-02-25T08:23:40;97007.19;;;3.75;72.78
72525;BME280;60547;48.502;8.996;2023-02-25T08:26:06;97007.53;;;4.07;72.29
72525;BME280;60547;48.502;8.996;2023-02-25T08:28:35;97001.34;;;4.50;72.18
72525;BME280;60547;48.502;8.996;2023-02-25T08:31:01;96994.53;;;4.81;70.63
72525;BME280;60547;48.502;8.996;2023-02-25T08:33:27;96996.31;;;4.92;69.91
72525;BME280;60547;48.502;8.996;2023-02-25T08:35:54;96993.34;;;4.59;70.07
72525;BME280;60547;48.502;8.996;2023-02-25T08:38:20;97007.69;;;4.47;69.20
72525;BME280;60547;48.502;8.996;2023-02-25T08:40:46;97004.41;;;4.32;68.58
72525;BME280;60547;48.502;8.996;2023-02-25T08:43:11;96993.19;;;4.19;69.16
72525;BME280;60547;48.502;8.996;2023-02-25T08:45:39;97012.25;;;4.34;71.28
72525;BME280;60547;48.502;8.996;2023-02-25T08:48:05;96999.16;;;4.14;72.05
72525;BME280;60547;48.502;8.996;2023-02-25T08:50:30;97008.81;;;4.26;69.53
72525;BME280;60547;48.502;8.996;2023-02-25T08:52:56;97008.03;;;4.26;67.59
72525;BME280;60547;48.502;8.996;2023-02-25T08:55:22;97002.84;;;4.04;67.77
72525;BME280;60547;48.502;8.996;2023-02-25T08:57:50;97006.03;;;4.03;68.31
72525;BME280;60547;48.502;8.996;2023-02-25T09:00:16;97022.78;;;4.12;69.23
72525;BME280;60547;48.502;8.996;2023-02-25T09:02:42;97026.59;;;3.95;66.57
72525;BME280;60547;48.502;8.996;2023-02-25T09:05:09;97021.75;;;4.02;68.52
72525;BME280;60547;48.502;8.996;2023-02-25T09:07:35;97008.84;;;3.69;68.08
72525;BME280;60547;48.502;8.996;2023-02-25T09:10:01;97007.78;;;3.59;69.72
72525;BME280;60547;48.502;8.996;2023-02-25T09:12:30;97018.97;;;3.75;68.20
72525;BME280;60547;48.502;8.996;2023-02-25T09:14:56;97024.66;;;3.61;70.44
72525;BME280;60547;48.502;8.996;2023-02-25T09:17:21;97017.66;;;3.56;69.93
72525;BME280;60547;48.502;8.996;2023-02-25T09:19:47;97022.38;;;3.56;70.36
72525;BME280;60547;48.502;8.996;2023-02-25T09:22:13;97020.16;;;3.44;71.05
72525;BME280;60547;48.502;8.996;2023-02-25T09:24:38;97022.13;;;3.43;72.48
72525;BME280;60547;48.502;8.996;2023-02-25T09:27:04;97015.81;;;3.46;74.43
72525;BME280;60547;48.502;8.996;2023-02-25T09:29:38;97018.28;;;3.68;74.07
72525;BME280;60547;48.502;8.996;2023-02-25T09:32:05;97028.38;;;3.78;70.52
72525;BME280;60547;48.502;8.996;2023-02-25T09:34:31;97019.72;;;3.79;71.94
72525;BME280;60547;48.502;8.996;2023-02-25T09:37:02;97017.19;;;3.92;72.83
72525;BME280;60547;48.502;8.996;2023-02-25T09:39:28;97015.63;;;3.91;73.08
72525;BME280;60547;48.502;8.996;2023-02-25T09:42:07;97019.25;;;4.11;71.91
72525;BME280;60547;48.502;8.996;2023-02-25T09:44:44;97008.50;;;4.20;67.38
72525;BME280;60547;48.502;8.996;2023-02-25T09:47:16;97002.53;;;4.26;67.57
72525;BME280;60547;48.502;8.996;2023-02-25T09:49:55;96999.25;;;4.34;65.11
72525;BME280;60547;48.502;8.996;2023-02-25T09:52:30;96983.41;;;4.42;65.94
72525;BME280;60547;48.502;8.996;2023-02-25T09:55:10;96997.94;;;4.66;66.08
72525;BME280;60547;48.502;8.996;2023-02-25T09:57:40;96995.38;;;4.78;66.34
72525;BME280;60547;48.502;8.996;2023-02-25T10:00:15;96999.31;;;4.77;66.07
72525;BME280;60547;48.502;8.996;2023-02-25T10:08:01;96973.97;;;4.86;64.98
72525;BME280;60547;48.502;8.996;2023-02-25T10:13:46;96990.47;;;5.29;62.53
72525;BME280;60547;48.502;8.996;2023-02-25T10:16:29;96974.47;;;5.01;57.10
72525;BME280;60547;48.502;8.996;2023-02-25T10:24:42;96982.00;;;5.20;56.09
72525;BME280;60547;48.502;8.996;2023-02-25T10:27:23;96977.03;;;5.31;57.59
72525;BME280;60547;48.502;8.996;2023-02-25T10:30:01;96969.25;;;5.26;56.81
72525;BME280;60547;48.502;8.996;2023-02-25T10:32:33;96969.56;;;5.32;56.77
72525;BME280;60547;48.502;8.996;2023-02-25T10:35:00;96976.28;;;5.31;57.16
72525;BME280;60547;48.502;8.996;2023-02-25T10:37:33;96981.50;;;5.25;56.54
72525;BME280;60547;48.502;8.996;2023-02-25T10:40:01;96982.06;;;5.16;56.81
72525;BME280;60547;48.502;8.996;2023-02-25T10:42:28;96985.09;;;5.22;58.54
72525;BME280;60547;48.502;8.996;2023-02-25T10:44:59;96987.16;;;5.18;57.83
72525;BME280;60547;48.502;8.996;2023-02-25T10:47:34;96976.25;;;5.11;58.80
72525;BME280;60547;48.502;8.996;2023-02-25T10:50:23;96983.34;;;5.12;57.83
72525;BME280;60547;48.502;8.996;2023-02-25T10:53:00;96969.31;;;5.03;57.33
72525;BME280;60547;48.502;8.996;2023-02-25T10:55:50;96980.84;;;4.98;58.82
72525;BME280;60547;48.502;8.996;2023-02-25T10:58:35;96966.00;;;4.92;60.26
72525;BME280;60547;48.502;8.996;2023-02-25T11:03:39;96968.41;;;4.66;61.45
72525;BME280;60547;48.502;8.996;2023-02-25T11:06:08;96955.66;;;4.76;61.25
72525;BME280;60547;48.502;8.996;2023-02-25T11:08:34;96953.41;;;4.91;61.32
72525;BME280;60547;48.502;8.996;2023-02-25T11:11:15;96947.63;;;5.05;60.95
72525;BME280;60547;48.502;8.996;2023-02-25T11:13:41;96948.97;;;4.97;59.48
72525;BME280;60547;48.502;8.996;2023-02-25T11:16:10;96956.38;;;5.00;59.59
72525;BME280;60547;48.502;8.996;2023-02-25T11:18:38;96954.47;;;4.97;59.95
72525;BME280;60547;48.502;8.996;2023-02-25T11:21:07;96946.84;;;4.84;57.61
72525;BME280;60547;48.502;8.996;2023-02-25T11:23:45;96945.38;;;5.00;58.49
72525;BME280;60547;48.502;8.996;2023-02-25T11:26:25;96957.22;;;4.97;58.35
72525;BME280;60547;48.502;8.996;2023-02-25T11:28:52;96966.31;;;4.74;59.06
72525;BME280;60547;48.502;8.996;2023-02-25T11:31:20;96971.94;;;4.90;58.53
72525;BME280;60547;48.502;8.996;2023-02-25T11:33:52;96964.38;;;4.94;57.95
72525;BME280;60547;48.502;8.996;2023-02-25T11:36:23;96971.00;;;4.97;57.65
72525;BME280;60547;48.502;8.996;2023-02-25T11:39:06;96967.69;;;4.85;58.80
72525;BME280;60547;48.502;8.996;2023-02-25T11:41:31;96946.03;;;4.64;58.00
72525;BME280;60547;48.502;8.996;2023-02-25T11:44:11;96962.19;;;4.62;59.36
72525;BME280;60547;48.502;8.996;2023-02-25T11:46:43;96970.69;;;4.71;59.09
72525;BME280;60547;48.502;8.996;2023-02-25T11:50:03;96963.97;;;4.72;59.64
72525;BME280;60547;48.502;8.996;2023-02-25T11:58:03;96951.34;;;4.75;59.90
72525;BME280;60547;48.502;8.996;2023-02-25T12:00:49;96962.66;;;4.80;58.57
72525;BME280;60547;48.502;8.996;2023-02-25T12:08:40;96954.44;;;4.77;59.61
72525;BME280;60547;48.502;8.996;2023-02-25T12:21:37;96939.78;;;5.23;57.19
72525;BME280;60547;48.502;8.996;2023-02-25T12:33:22;96937.22;;;5.32;57.93
72525;BME280;60547;48.502;8.996;2023-02-25T12:39:16;96943.38;;;5.20;57.75
72525;BME280;60547;48.502;8.996;2023-02-25T12:47:14;96944.03;;;5.08;57.33
72525;BME280;60547;48.502;8.996;2023-02-25T13:03:50;96950.25;;;5.32;57.71
72525;BME280;60547;48.502;8.996;2023-02-25T13:06:44;96947.69;;;5.41;57.83
72525;BME280;60547;48.502;8.996;2023-02-25T13:12:24;96947.84;;;5.34;59.11
72525;BME280;60547;48.502;8.996;2023-02-25T13:15:08;96949.88;;;5.49;58.32
72525;BME280;60547;48.502;8.996;2023-02-25T13:31:31;96934.25;;;5.79;56.16
72525;BME280;60547;48.502;8.996;2023-02-25T13:36:46;96920.09;;;5.77;55.42
72525;BME280;60547;48.502;8.996;2023-02-25T13:44:36;96910.16;;;5.63;56.62
72525;BME280;60547;48.502;8.996;2023-02-25T13:55:37;96909.50;;;5.39;58.26
72525;BME280;60547;48.502;8.996;2023-02-25T14:01:27;96906.19;;;5.28;57.69
72525;BME280;60547;48.502;8.996;2023-02-25T14:04:34;96912.56;;;5.25;57.69
72525;BME280;60547;48.502;8.996;2023-02-25T14:10:13;96912.22;;;5.03;58.37
72525;BME280;60547;48.502;8.996;2023-02-25T14:24:12;96925.06;;;4.70;59.48
72525;BME280;60547;48.502;8.996;2023-02-25T14:27:03;96931.81;;;4.66;60.94
72525;BME280;60547;48.502;8.996;2023-02-25T14:32:52;96939.31;;;4.65;61.42
72525;BME280;60547;48.502;8.996;2023-02-25T14:35:29;96946.16;;;4.57;61.58
72525;BME280;60547;48.502;8.996;2023-02-25T14:40:47;96949.03;;;4.27;63.25
72525;BME280;60547;48.502;8.996;2023-02-25T14:48:39;96943.28;;;4.41;63.77
72525;BME280;60547;48.502;8.996;2023-02-25T14:51:24;96939.88;;;4.33;62.76
72525;BME280;60547;48.502;8.996;2023-02-25T14:54:09;96945.31;;;4.37;62.87
72525;BME280;60547;48.502;8.996;2023-02-25T14:59:50;96957.09;;;4.61;62.36
72525;BME280;60547;48.502;8.996;2023-02-25T15:02:27;96953.44;;;4.67;61.81
72525;BME280;60547;48.502;8.996;2023-02-25T15:08:24;96956.84;;;4.75;60.76
72525;BME280;60547;48.502;8.996;2023-02-25T15:14:19;96952.56;;;4.94;61.42
72525;BME280;60547;48.502;8.996;2023-02-25T15:22:32;96947.41;;;4.96;59.98
72525;BME280;60547;48.502;8.996;2023-02-25T15:27:51;96956.66;;;4.85;59.28
72525;BME280;60547;48.502;8.996;2023-02-25T15:30:17;96963.91;;;4.76;59.56
72525;BME280;60547;48.502;8.996;2023-02-25T15:35:22;96964.56;;;4.83;60.19
72525;BME280;60547;48.502;8.996;2023-02-25T15:51:41;96968.72;;;4.72;59.69
72525;BME280;60547;48.502;8.996;2023-02-25T15:54:08;96972.50;;;4.58;60.68
72525;BME280;60547;48.502;8.996;2023-02-25T15:56:49;96982.78;;;4.54;60.66
72525;BME280;60547;48.502;8.996;2023-02-25T16:07:39;96970.81;;;4.64;63.14
72525;BME280;60547;48.502;8.996;2023-02-25T16:10:23;96974.28;;;4.68;62.42
72525;BME280;60547;48.502;8.996;2023-02-25T16:12:52;96972.38;;;4.65;63.03
72525;BME280;60547;48.502;8.996;2023-02-25T16:15:37;96974.28;;;4.68;62.98
72525;BME280;60547;48.502;8.996;2023-02-25T16:20:41;96972.84;;;4.60;63.80
72525;BME280;60547;48.502;8.996;2023-02-25T16:23:11;96974.66;;;4.47;63.96
72525;BME280;60547;48.502;8.996;2023-02-25T16:25:46;96975.25;;;4.58;64.24
72525;BME280;60547;48.502;8.996;2023-02-25T16:28:29;96980.50;;;4.72;64.57
72525;BME280;60547;48.502;8.996;2023-02-25T16:31:05;96964.28;;;4.54;64.71
72525;BME280;60547;48.502;8.996;2023-02-25T16:36:26;96986.88;;;4.46;64.93
72525;BME280;60547;48.502;8.996;2023-02-25T16:38:59;96995.97;;;4.43;64.68
72525;BME280;60547;48.502;8.996;2023-02-25T16:41:27;97000.69;;;4.42;64.75